Time;durP1;ratioP1;P1;durP2;ratioP2;P2;SDS_P1;SDS_P2;PMS_P1;PMS_P2;Temp;Humidity;BMP_temperature;BMP_pressure;BME280_temperature;BME280_humidity;BME280_pressure;Samples;Min_cycle;Max_cycle;Signal;HPM_P1;HPM_P2
2023/11/13 06:01:19;;;;;;;16.40;2.80;;;10.60;94.40;;;;;;4479332;23;20146;-78
2023/11/13 06:03:21;;;;;;;16.67;2.85;;;10.60;94.30;;;;;;4102702;28;20097;-76
2023/11/13 06:05:24;;;;;;;11.05;2.55;;;10.70;94.10;;;;;;4114428;28;20102;-79
2023/11/13 06:07:26;;;;;;;13.95;3.03;;;10.70;94.10;;;;;;4102852;29;20094;-77
2023/11/13 06:09:28;;;;;;;15.20;2.95;;;10.70;94.00;;;;;;4102411;29;20047;-77
2023/11/13 06:11:30;;;;;;;12.48;2.72;;;10.70;93.80;;;;;;4102105;28;20059;-78
2023/11/13 06:13:32;;;;;;;15.88;3.30;;;10.70;93.70;;;;;;4102503;28;20051;-78
2023/11/13 06:15:37;;;;;;;13.13;2.60;;;10.80;93.70;;;;;;4102571;28;20081;-77
2023/11/13 06:17:42;;;;;;;13.65;2.85;;;10.80;93.70;;;;;;4102597;29;20138;-79
2023/11/13 06:19:43;;;;;;;16.38;2.97;;;10.80;93.50;;;;;;4102547;29;20047;-78
2023/11/13 06:21:45;;;;;;;15.55;3.13;;;10.80;93.40;;;;;;4102455;28;20476;-78
2023/11/13 06:23:46;;;;;;;12.55;2.83;;;10.80;93.50;;;;;;4102430;29;20608;-78
2023/11/13 06:25:48;;;;;;;14.23;3.45;;;10.80;93.00;;;;;;4102212;29;20106;-77
2023/11/13 06:27:51;;;;;;;15.88;2.95;;;10.80;93.00;;;;;;4102252;29;20051;-79
2023/11/13 06:29:53;;;;;;;14.13;2.83;;;10.90;92.80;;;;;;4102260;29;20047;-79
2023/11/13 06:31:55;;;;;;;13.02;2.95;;;10.90;92.50;;;;;;4102277;29;20053;-79
2023/11/13 06:33:58;;;;;;;15.02;2.97;;;10.90;92.60;;;;;;4102200;29;20465;-76
2023/11/13 06:35:59;;;;;;;11.93;3.25;;;10.90;92.60;;;;;;4102283;29;20110;-79
2023/11/13 06:38:01;;;;;;;12.43;2.30;;;10.90;92.60;;;;;;4102208;29;20051;-78
2023/11/13 06:40:03;;;;;;;13.18;2.78;;;10.90;92.60;;;;;;4102103;29;20063;-78
2023/11/13 06:42:07;;;;;;;14.23;2.83;;;10.90;92.50;;;;;;4102193;29;20548;-79
2023/11/13 06:44:08;;;;;;;13.20;2.83;;;10.90;92.60;;;;;;4101920;28;20137;-79
2023/11/13 06:46:11;;;;;;;17.45;2.85;;;10.90;92.50;;;;;;4101816;29;20082;-79
2023/11/13 06:48:13;;;;;;;14.13;3.00;;;10.90;92.50;;;;;;4102141;29;20079;-79
2023/11/13 06:50:15;;;;;;;12.73;2.90;;;10.90;92.40;;;;;;4101911;29;20047;-78
2023/11/13 06:52:17;;;;;;;14.00;2.63;;;10.90;92.30;;;;;;4102013;29;20043;-79
2023/11/13 06:54:21;;;;;;;13.70;2.40;;;10.90;92.10;;;;;;4101849;29;20552;-79
2023/11/13 06:56:23;;;;;;;12.93;2.97;;;10.90;91.90;;;;;;4101679;29;20464;-79
2023/11/13 06:58:25;;;;;;;13.02;2.33;;;11.00;91.40;;;;;;4101629;29;20083;-79
2023/11/13 07:00:27;;;;;;;13.57;2.35;;;11.00;91.10;;;;;;4101584;28;20551;-79
2023/11/13 07:02:29;;;;;;;11.60;2.35;;;10.90;90.90;;;;;;4101840;29;20047;-79
2023/11/13 07:04:31;;;;;;;12.25;2.00;;;11.00;91.00;;;;;;4101722;28;20385;-79
2023/11/13 07:06:34;;;;;;;9.95;2.53;;;11.00;90.60;;;;;;4101630;29;20051;-78
2023/11/13 07:08:36;;;;;;;11.38;2.50;;;11.00;90.80;;;;;;4101545;29;20048;-77
2023/11/13 07:10:38;;;;;;;10.88;2.55;;;11.00;90.50;;;;;;4101798;29;20058;-79
2023/11/13 07:12:40;;;;;;;9.85;2.25;;;10.90;90.50;;;;;;4101668;29;20051;-77
2023/11/13 07:14:42;;;;;;;10.07;2.50;;;10.90;90.50;;;;;;4101703;29;20070;-77
2023/11/13 07:16:44;;;;;;;10.57;1.85;;;10.90;90.40;;;;;;4101639;29;20088;-80
2023/11/13 07:18:46;;;;;;;12.05;2.22;;;10.90;90.00;;;;;;4101485;29;20382;-79
2023/11/13 07:20:50;;;;;;;9.30;2.10;;;10.90;90.40;;;;;;4101656;29;20453;-80
2023/11/13 07:22:53;;;;;;;7.43;2.03;;;10.90;90.10;;;;;;4101667;29;20047;-79
2023/11/13 07:24:55;;;;;;;10.52;2.45;;;10.90;90.00;;;;;;4101615;29;20047;-80
2023/11/13 07:26:58;;;;;;;10.48;2.05;;;10.80;89.80;;;;;;4101487;29;20473;-78
2023/11/13 07:28:59;;;;;;;9.52;2.03;;;10.90;89.60;;;;;;4101475;29;20051;-78
2023/11/13 07:31:01;;;;;;;10.23;1.83;;;10.90;89.70;;;;;;4101425;29;20138;-78
2023/11/13 07:33:03;;;;;;;10.80;2.00;;;10.80;90.00;;;;;;4101347;29;20054;-79
2023/11/13 07:35:07;;;;;;;9.40;2.30;;;10.80;90.00;;;;;;4101295;29;20047;-78
2023/11/13 07:37:10;;;;;;;9.30;2.20;;;10.80;90.00;;;;;;4101508;29;20098;-77
2023/11/13 07:39:15;;;;;;;9.10;1.80;;;10.80;89.80;;;;;;4101172;29;20059;-78
2023/11/13 07:41:17;;;;;;;9.80;2.10;;;10.80;89.90;;;;;;4101416;29;20055;-77
2023/11/13 07:43:18;;;;;;;8.43;1.70;;;10.80;89.70;;;;;;4101370;29;20063;-77
2023/11/13 07:45:19;;;;;;;8.63;2.10;;;10.70;90.20;;;;;;4101259;29;20063;-79
2023/11/13 07:47:26;;;;;;;11.20;2.28;;;10.70;90.30;;;;;;4089901;29;20059;-78
2023/11/13 07:49:28;;;;;;;7.78;1.60;;;10.70;90.50;;;;;;4085118;29;20087;-78
2023/11/13 07:51:31;;;;;;;7.70;1.90;;;10.70;90.50;;;;;;4085150;29;20047;-78
2023/11/13 07:53:35;;;;;;;6.13;1.58;;;10.70;90.40;;;;;;4085437;29;20088;-79
2023/11/13 07:55:43;;;;;;;8.38;1.90;;;10.60;90.40;;;;;;4085347;29;20491;-79
2023/11/13 07:57:45;;;;;;;8.95;2.13;;;10.60;90.60;;;;;;4085177;29;20107;-79
2023/11/13 07:59:47;;;;;;;9.68;2.88;;;10.60;90.90;;;;;;4098600;29;20051;-79
2023/11/13 08:01:51;;;;;;;7.00;1.77;;;10.50;91.00;;;;;;4100779;29;20102;-79
2023/11/13 08:03:54;;;;;;;7.13;1.65;;;10.60;91.00;;;;;;4101237;29;20063;-79
2023/11/13 08:05:56;;;;;;;7.38;2.00;;;10.60;91.00;;;;;;4101203;29;20095;-78
2023/11/13 08:07:59;;;;;;;7.82;1.88;;;10.60;91.10;;;;;;4100906;29;20382;-77
2023/11/13 08:10:01;;;;;;;11.50;2.10;;;10.50;91.30;;;;;;4100917;29;20047;-78
2023/11/13 08:12:05;;;;;;;9.10;1.92;;;10.50;91.60;;;;;;4100900;29;20051;-79
2023/11/13 08:14:08;;;;;;;6.47;1.38;;;10.50;91.60;;;;;;4100953;29;20489;-79
2023/11/13 08:16:09;;;;;;;8.00;1.73;;;10.50;91.60;;;;;;4100542;28;20055;-79
2023/11/13 08:18:13;;;;;;;8.20;1.83;;;10.50;91.70;;;;;;4101131;29;20370;-79
2023/11/13 08:20:15;;;;;;;9.70;2.05;;;10.50;91.90;;;;;;4101050;29;20106;-77
2023/11/13 08:22:17;;;;;;;5.97;1.73;;;10.40;92.10;;;;;;4100922;29;20469;-78
2023/11/13 08:24:19;;;;;;;7.72;1.65;;;10.40;92.40;;;;;;4100890;29;20067;-77
2023/11/13 08:26:28;;;;;;;9.93;2.03;;;10.40;92.10;;;;;;4095688;28;20135;-78
2023/11/13 08:28:32;;;;;;;8.80;1.92;;;10.40;92.40;;;;;;4082802;29;20051;-79
2023/11/13 08:30:35;;;;;;;9.57;2.13;;;10.30;92.90;;;;;;4082933;29;20750;-78
2023/11/13 08:32:36;;;;;;;6.15;1.55;;;10.30;93.20;;;;;;4082529;29;20477;-79
2023/11/13 08:34:38;;;;;;;9.10;1.90;;;10.30;92.80;;;;;;4083960;29;20048;-78
2023/11/13 08:36:41;;;;;;;10.20;1.92;;;10.30;92.80;;;;;;4083429;29;20493;-78
2023/11/13 08:38:44;;;;;;;9.55;2.20;;;10.30;92.70;;;;;;4083323;29;20059;-80
2023/11/13 08:40:46;;;;;;;9.35;2.22;;;10.40;93.00;;;;;;4083325;29;20122;-79
2023/11/13 08:42:48;;;;;;;10.63;2.08;;;10.30;92.90;;;;;;4083107;29;20134;-78
2023/11/13 08:44:52;;;;;;;13.98;4.90;;;10.30;93.00;;;;;;4081147;29;20051;-77
2023/11/13 08:46:54;;;;;;;22.48;10.05;;;10.30;93.10;;;;;;4083003;29;20083;-77
2023/11/13 08:48:57;;;;;;;21.35;10.15;;;10.30;93.30;;;;;;4083053;29;20047;-78
2023/11/13 08:51:00;;;;;;;25.73;11.00;;;10.30;93.40;;;;;;4082225;29;20130;-80
2023/11/13 08:53:02;;;;;;;11.75;3.33;;;10.30;93.50;;;;;;4082236;29;20067;-77
2023/11/13 08:55:04;;;;;;;17.25;5.63;;;10.20;93.50;;;;;;4082328;29;20059;-76
2023/11/13 08:57:07;;;;;;;13.82;3.72;;;10.30;93.50;;;;;;4082754;29;20048;-79
2023/11/13 08:59:12;;;;;;;14.95;5.40;;;10.20;93.60;;;;;;4083465;29;20505;-78
2023/11/13 09:01:19;;;;;;;14.93;4.60;;;10.30;93.40;;;;;;4082966;29;20059;-78
2023/11/13 09:03:21;;;;;;;7.68;2.47;;;10.30;93.30;;;;;;4065623;29;20478;-77
2023/11/13 09:05:25;;;;;;;10.30;2.28;;;10.40;93.30;;;;;;4083001;29;20054;-78
2023/11/13 09:07:28;;;;;;;6.57;2.25;;;10.50;93.40;;;;;;4083177;29;20062;-79
2023/11/13 09:09:30;;;;;;;11.35;2.30;;;10.50;93.70;;;;;;4082388;29;20052;-77
2023/11/13 09:11:32;;;;;;;6.45;1.92;;;10.50;93.10;;;;;;4082992;29;20063;-78
2023/11/13 09:13:34;;;;;;;8.77;2.00;;;10.50;93.00;;;;;;4083024;29;20047;-79
2023/11/13 09:15:36;;;;;;;8.68;1.60;;;10.60;93.20;;;;;;4081942;29;20481;-80
2023/11/13 09:17:43;;;;;;;9.90;2.00;;;10.60;93.10;;;;;;4083216;29;20048;-80
2023/11/13 09:19:47;;;;;;;9.30;2.17;;;10.60;93.00;;;;;;4082964;29;20115;-79
2023/11/13 09:21:49;;;;;;;6.32;2.10;;;10.60;93.10;;;;;;4082537;29;20470;-78
2023/11/13 09:23:51;;;;;;;10.85;2.92;;;10.70;93.10;;;;;;4082730;29;20465;-80
2023/11/13 09:25:52;;;;;;;9.35;2.38;;;10.70;93.10;;;;;;4082754;29;20421;-80
2023/11/13 09:27:57;;;;;;;7.88;2.15;;;10.70;93.10;;;;;;4082579;29;20055;-79
2023/11/13 09:29:59;;;;;;;6.05;1.45;;;10.80;93.10;;;;;;4085912;29;20539;-79
2023/11/13 09:32:01;;;;;;;5.82;1.52;;;10.80;93.10;;;;;;4085477;29;20126;-77
2023/11/13 09:34:07;;;;;;;4.93;1.48;;;10.90;93.10;;;;;;4085380;29;20051;-78
2023/11/13 09:36:09;;;;;;;5.38;1.48;;;10.90;93.00;;;;;;4085323;29;20070;-77
2023/11/13 09:38:11;;;;;;;7.32;1.83;;;11.00;93.10;;;;;;4085008;29;20111;-79
2023/11/13 09:40:16;;;;;;;5.68;1.58;;;11.00;93.20;;;;;;4085171;29;20054;-79
2023/11/13 09:42:20;;;;;;;4.28;1.30;;;11.10;93.30;;;;;;4085193;29;20055;-79
2023/11/13 09:44:23;;;;;;;7.43;1.40;;;11.10;93.40;;;;;;4083416;29;20108;-80
2023/11/13 09:46:27;;;;;;;6.95;1.55;;;11.20;93.40;;;;;;4085124;29;20061;-79
2023/11/13 09:48:30;;;;;;;4.75;1.10;;;11.20;93.40;;;;;;4085077;29;20052;-79
2023/11/13 09:50:35;;;;;;;6.78;1.30;;;11.30;93.40;;;;;;4084793;29;20056;-79
2023/11/13 09:52:37;;;;;;;6.60;1.75;;;11.30;93.30;;;;;;4085083;29;20051;-79
2023/11/13 09:54:40;;;;;;;4.15;1.42;;;11.30;93.50;;;;;;4085170;29;20396;-79
2023/11/13 09:56:42;;;;;;;5.25;1.90;;;11.40;93.40;;;;;;4085050;29;20047;-78
2023/11/13 09:58:45;;;;;;;4.95;1.77;;;11.40;93.30;;;;;;4090148;29;20668;-78
2023/11/13 10:00:47;;;;;;;4.90;1.58;;;11.50;93.10;;;;;;4100700;29;20059;-78
2023/11/13 10:02:49;;;;;;;4.57;1.60;;;11.50;92.90;;;;;;4100757;29;20428;-81
2023/11/13 10:04:54;;;;;;;6.10;1.48;;;11.50;92.70;;;;;;4100809;29;20055;-79
2023/11/13 10:06:59;;;;;;;5.63;2.03;;;11.60;92.70;;;;;;4100730;29;20054;-79
2023/11/13 10:09:01;;;;;;;7.15;1.90;;;11.60;92.70;;;;;;4100770;29;20051;-79
2023/11/13 10:11:03;;;;;;;5.25;1.85;;;11.60;92.60;;;;;;4100661;29;20106;-80
2023/11/13 10:13:09;;;;;;;8.57;2.53;;;11.60;92.50;;;;;;4100998;29;20062;-79
2023/11/13 10:15:12;;;;;;;;;;;11.70;92.60;;;;;;4100808;29;20063;-77
2023/11/13 10:17:14;;;;;;;7.15;1.98;;;11.70;92.60;;;;;;4100517;29;19968;-78
2023/11/13 10:19:15;;;;;;;7.13;1.75;;;11.70;92.60;;;;;;4100781;29;20496;-77
2023/11/13 10:21:22;;;;;;;6.00;1.98;;;11.70;92.70;;;;;;4100774;29;20104;-78
2023/11/13 10:23:34;;;;;;;7.90;1.80;;;11.70;92.80;;;;;;4100686;29;20162;-79
2023/11/13 10:25:46;;;;;;;4.85;1.65;;;11.70;92.90;;;;;;4100452;29;20134;-79
2023/11/13 10:28:01;;;;;;;9.73;2.65;;;11.70;92.80;;;;;;4100166;29;20142;-79
2023/11/13 10:30:04;;;;;;;6.93;2.03;;;11.80;92.90;;;;;;4100096;29;20051;-79
2023/11/13 10:32:07;;;;;;;8.68;2.17;;;11.80;92.90;;;;;;4100387;29;20090;-78
2023/11/13 10:34:11;;;;;;;7.07;2.22;;;11.80;92.80;;;;;;4100276;29;20055;-76
2023/11/13 10:36:17;;;;;;;7.32;2.45;;;11.80;92.80;;;;;;4100267;29;20142;-79
2023/11/13 10:38:21;;;;;;;9.10;2.70;;;11.90;92.80;;;;;;4099779;29;20109;-79
2023/11/13 10:40:29;;;;;;;6.20;2.22;;;11.90;92.70;;;;;;4099844;28;20091;-78
2023/11/13 10:42:31;;;;;;;6.93;2.30;;;11.90;92.70;;;;;;4100115;29;20131;-79
2023/11/13 10:44:38;;;;;;;7.97;2.55;;;12.00;92.70;;;;;;4098140;29;20696;-79
2023/11/13 10:46:40;;;;;;;8.85;2.65;;;12.00;92.70;;;;;;4100081;29;20055;-79
2023/11/13 10:48:45;;;;;;;6.18;2.33;;;12.10;92.80;;;;;;4099906;29;20496;-78
2023/11/13 10:50:47;;;;;;;7.00;2.30;;;12.10;92.80;;;;;;4099882;29;20055;-79
2023/11/13 10:52:54;;;;;;;7.03;2.70;;;12.10;92.90;;;;;;4100046;29;20474;-79
2023/11/13 10:54:59;;;;;;;9.60;2.50;;;12.20;92.90;;;;;;4100194;29;20059;-79
2023/11/13 10:57:04;;;;;;;10.17;2.77;;;12.20;93.30;;;;;;4100561;29;20529;-79
2023/11/13 10:59:07;;;;;;;10.45;2.53;;;12.30;93.00;;;;;;4099849;29;20353;-79
2023/11/13 11:01:10;;;;;;;8.10;2.70;;;12.30;93.00;;;;;;4099932;29;20142;-79
2023/11/13 11:03:17;;;;;;;10.63;2.33;;;12.40;93.00;;;;;;4101687;29;20051;-78
2023/11/13 11:05:22;;;;;;;9.00;2.53;;;12.40;93.00;;;;;;4100536;29;20074;-80
2023/11/13 11:07:26;;;;;;;9.43;2.60;;;12.50;92.90;;;;;;4100453;29;20058;-79
2023/11/13 11:09:28;;;;;;;13.80;2.72;;;12.50;93.20;;;;;;4099659;29;20310;-80
2023/11/13 11:11:34;;;;;;;7.00;1.98;;;12.60;92.80;;;;;;4100013;29;20059;-79
2023/11/13 11:13:42;;;;;;;7.70;2.60;;;12.60;92.70;;;;;;4099834;29;20051;-79
2023/11/13 11:16:06;;;;;;;9.35;2.17;;;12.70;92.60;;;;;;4099184;29;20478;-79
2023/11/13 11:18:19;;;;;;;11.53;2.10;;;12.80;92.30;;;;;;4099542;29;20047;-79
2023/11/13 11:20:45;;;;;;;7.55;2.30;;;12.80;92.20;;;;;;4099631;29;20083;-79
2023/11/13 11:22:50;;;;;;;13.60;4.43;;;12.90;92.20;;;;;;4099775;29;20055;-79
2023/11/13 11:25:07;;;;;;;16.58;6.45;;;12.90;92.40;;;;;;4099854;29;20055;-79
2023/11/13 11:27:10;;;;;;;8.88;2.35;;;13.00;92.60;;;;;;4099398;29;20088;-78
2023/11/13 11:29:31;;;;;;;10.90;2.70;;;12.90;92.80;;;;;;4099410;29;20097;-78
2023/11/13 11:31:47;;;;;;;7.13;2.10;;;12.90;93.10;;;;;;4099762;29;20386;-80
2023/11/13 11:33:48;;;;;;;9.40;2.40;;;12.90;93.20;;;;;;4099441;29;20051;-79
2023/11/13 11:35:50;;;;;;;7.97;2.42;;;13.00;93.10;;;;;;4099471;29;20090;-79
2023/11/13 11:38:22;;;;;;;9.40;2.58;;;13.00;93.20;;;;;;4100397;29;20105;-80
2023/11/13 11:40:30;;;;;;;11.02;2.40;;;13.10;93.20;;;;;;4098053;29;20059;-80
2023/11/13 11:42:32;;;;;;;10.85;3.08;;;13.10;93.10;;;;;;4099944;29;20083;-83
2023/11/13 11:44:48;;;;;;;9.35;3.00;;;13.10;93.00;;;;;;4098878;29;20134;-81
2023/11/13 11:46:52;;;;;;;11.07;3.35;;;13.10;93.00;;;;;;4101125;29;20051;-80
2023/11/13 11:48:53;;;;;;;8.18;2.55;;;13.10;93.10;;;;;;4101422;29;20125;-80
2023/11/13 11:50:57;;;;;;;8.93;3.15;;;13.20;93.10;;;;;;4099545;28;20055;-83
2023/11/13 11:52:58;;;;;;;11.20;2.53;;;13.10;93.20;;;;;;4099482;29;20047;-83
2023/11/13 11:55:04;;;;;;;10.90;2.45;;;13.10;93.10;;;;;;4099242;29;20142;-82
2023/11/13 11:57:08;;;;;;;9.48;2.42;;;13.10;93.00;;;;;;4082200;29;20056;-82
2023/11/13 11:59:09;;;;;;;9.95;2.67;;;13.20;93.20;;;;;;4099172;29;20046;-81
2023/11/13 12:01:15;;;;;;;8.25;2.40;;;13.20;93.10;;;;;;4098906;29;20433;-82
2023/11/13 12:03:18;;;;;;;8.00;2.42;;;13.20;93.20;;;;;;4099043;29;20058;-81
2023/11/13 12:05:21;;;;;;;9.20;2.88;;;13.20;93.20;;;;;;4099305;29;20143;-82
2023/11/13 12:07:24;;;;;;;8.10;2.60;;;13.20;93.10;;;;;;4099046;29;20138;-81
2023/11/13 12:09:26;;;;;;;7.50;2.53;;;13.20;93.40;;;;;;4098936;29;20058;-81
2023/11/13 12:11:28;;;;;;;9.98;2.60;;;13.20;92.90;;;;;;4099193;29;20150;-83
2023/11/13 12:13:32;;;;;;;9.32;2.53;;;13.20;92.90;;;;;;4099042;29;20047;-81
2023/11/13 12:15:34;;;;;;;11.20;2.33;;;13.20;93.10;;;;;;4081694;29;20432;-79
2023/11/13 12:17:39;;;;;;;9.23;2.30;;;13.30;93.00;;;;;;4100548;29;20054;-82
2023/11/13 12:19:40;;;;;;;8.35;2.50;;;13.30;92.90;;;;;;4100187;29;20047;-81
2023/11/13 12:21:43;;;;;;;10.45;2.45;;;13.40;93.00;;;;;;4082651;29;20131;-80
2023/11/13 12:23:47;;;;;;;8.55;2.20;;;13.40;92.90;;;;;;4100179;29;20422;-79
2023/11/13 12:25:50;;;;;;;7.63;2.10;;;13.40;92.90;;;;;;4098972;29;20055;-79
2023/11/13 12:27:54;;;;;;;6.03;1.85;;;13.50;92.80;;;;;;4098981;29;20134;-79
2023/11/13 12:30:04;;;;;;;8.38;1.90;;;13.50;92.60;;;;;;4099132;29;20063;-80
2023/11/13 12:32:08;;;;;;;8.25;2.28;;;13.50;92.50;;;;;;4099111;29;20049;-80
2023/11/13 12:34:14;;;;;;;8.05;2.00;;;13.60;92.40;;;;;;4098930;29;20047;-79
2023/11/13 12:36:17;;;;;;;8.60;2.00;;;13.60;92.40;;;;;;4098973;29;20078;-80
2023/11/13 12:38:20;;;;;;;5.55;1.60;;;13.60;92.40;;;;;;4099876;29;20051;-79
2023/11/13 12:40:22;;;;;;;8.95;2.00;;;13.60;92.30;;;;;;4104136;29;20677;-80
2023/11/13 12:42:24;;;;;;;7.68;1.85;;;13.70;92.30;;;;;;4109751;29;20119;-80
2023/11/13 12:44:27;;;;;;;5.38;1.42;;;13.80;92.40;;;;;;4105556;29;20270;-78
2023/11/13 12:46:30;;;;;;;3.90;1.25;;;13.70;92.10;;;;;;4109766;29;20094;-81
2023/11/13 12:48:32;;;;;;;6.55;1.58;;;13.80;92.00;;;;;;4107376;29;20051;-79
2023/11/13 12:50:38;;;;;;;5.45;1.65;;;13.80;92.20;;;;;;4091725;29;20055;-81
2023/11/13 12:52:42;;;;;;;4.38;1.60;;;13.80;91.90;;;;;;4101060;29;20113;-78
2023/11/13 12:54:45;;;;;;;5.78;1.60;;;13.90;91.70;;;;;;4099018;29;20154;-80
2023/11/13 12:56:49;;;;;;;7.40;1.95;;;13.90;91.60;;;;;;4099599;29;20555;-81
2023/11/13 12:58:51;;;;;;;6.88;1.48;;;13.90;91.60;;;;;;4098586;29;20497;-80
2023/11/13 13:00:53;;;;;;;4.88;1.42;;;13.90;91.70;;;;;;4098858;28;20545;-79
2023/11/13 13:02:55;;;;;;;6.20;1.80;;;14.00;91.70;;;;;;4099949;28;20059;-80
2023/11/13 13:04:57;;;;;;;6.30;1.70;;;13.90;91.70;;;;;;4102259;29;20410;-80
2023/11/13 13:07:00;;;;;;;5.65;1.55;;;13.90;91.90;;;;;;4102767;29;20106;-80
2023/11/13 13:09:05;;;;;;;3.90;1.48;;;14.00;92.00;;;;;;4101819;29;20051;-80
2023/11/13 13:11:07;;;;;;;4.80;1.45;;;13.90;92.10;;;;;;4103203;29;20121;-82
2023/11/13 13:13:10;;;;;;;5.25;1.60;;;13.90;92.30;;;;;;4102321;29;20055;-80
2023/11/13 13:15:16;;;;;;;5.72;1.73;;;13.90;92.30;;;;;;4102370;29;20051;-80
2023/11/13 13:17:21;;;;;;;;;;;13.90;92.40;;;;;;4086348;29;20524;-79
2023/11/13 13:19:23;;;;;;;5.40;1.52;;;13.90;92.30;;;;;;4102593;29;19922;-81
2023/11/13 13:21:28;;;;;;;6.30;1.77;;;13.90;92.40;;;;;;4102061;29;20070;-80
2023/11/13 13:23:31;;;;;;;4.25;1.42;;;13.90;92.20;;;;;;4102238;29;20078;-79
2023/11/13 13:25:35;;;;;;;7.07;1.88;;;13.90;92.30;;;;;;4102025;29;20055;-81
2023/11/13 13:27:38;;;;;;;7.97;1.75;;;13.90;92.40;;;;;;4101572;29;20090;-81
2023/11/13 13:29:41;;;;;;;4.57;1.55;;;13.90;92.40;;;;;;4102560;29;20145;-80
2023/11/13 13:31:43;;;;;;;7.07;1.83;;;13.90;92.30;;;;;;4102083;29;20055;-80
2023/11/13 13:33:45;;;;;;;5.75;1.42;;;13.90;92.20;;;;;;4101823;29;20057;-79
2023/11/13 13:35:49;;;;;;;4.63;1.45;;;13.90;92.10;;;;;;4101833;29;20069;-80
2023/11/13 13:37:52;;;;;;;4.35;1.50;;;14.00;92.20;;;;;;4102678;29;20062;-80
2023/11/13 13:39:56;;;;;;;4.97;1.55;;;14.00;92.10;;;;;;4102349;29;20074;-80
2023/11/13 13:41:59;;;;;;;5.25;1.60;;;14.00;92.00;;;;;;4102310;29;20052;-81
2023/11/13 13:44:03;;;;;;;5.20;1.90;;;14.00;92.00;;;;;;4102221;28;20059;-81
2023/11/13 13:46:07;;;;;;;5.93;1.90;;;13.90;92.00;;;;;;4101278;29;20051;-81
2023/11/13 13:48:11;;;;;;;6.05;1.80;;;14.00;91.90;;;;;;4102076;29;20098;-80
2023/11/13 13:50:16;;;;;;;4.47;1.60;;;14.00;91.90;;;;;;4101652;29;20057;-80
2023/11/13 13:52:20;;;;;;;5.82;1.45;;;14.00;91.70;;;;;;4101825;29;20067;-81
2023/11/13 13:54:23;;;;;;;5.03;1.80;;;14.00;91.60;;;;;;4101779;29;20089;-82
2023/11/13 13:56:29;;;;;;;4.78;1.83;;;14.00;91.80;;;;;;4101420;29;20098;-80
2023/11/13 13:58:30;;;;;;;5.05;1.60;;;13.90;91.30;;;;;;4101472;29;20493;-81
2023/11/13 14:00:33;;;;;;;4.50;1.50;;;14.00;91.40;;;;;;4101273;29;20512;-80
2023/11/13 14:02:35;;;;;;;5.35;1.60;;;14.10;91.40;;;;;;4101467;29;20437;-80
2023/11/13 14:04:37;;;;;;;5.63;1.70;;;14.00;91.30;;;;;;4101545;29;20523;-79
2023/11/13 14:06:40;;;;;;;4.55;1.42;;;14.10;91.40;;;;;;4101048;29;20089;-79
2023/11/13 14:08:44;;;;;;;4.10;1.30;;;14.10;91.30;;;;;;4101464;29;20079;-81
2023/11/13 14:10:49;;;;;;;4.40;1.50;;;14.10;91.10;;;;;;4101562;29;20055;-80
2023/11/13 14:12:53;;;;;;;5.18;1.30;;;14.10;91.20;;;;;;4101453;29;20424;-82
2023/11/13 14:14:55;;;;;;;3.40;1.15;;;14.20;90.90;;;;;;4100380;28;20134;-80
2023/11/13 14:16:57;;;;;;;4.63;2.10;;;14.20;90.80;;;;;;4101747;29;20074;-82
2023/11/13 14:18:59;;;;;;;6.28;2.75;;;14.20;90.70;;;;;;4100892;29;20051;-81
2023/11/13 14:21:08;;;;;;;4.32;1.35;;;14.10;90.70;;;;;;4078489;29;20059;-78
2023/11/13 14:23:10;;;;;;;3.67;1.23;;;14.20;90.70;;;;;;4069019;29;20525;-77
2023/11/13 14:25:16;;;;;;;5.10;1.30;;;14.10;90.80;;;;;;4084864;29;20051;-78
2023/11/13 14:27:19;;;;;;;3.65;1.00;;;14.10;90.70;;;;;;4084847;29;20051;-80
2023/11/13 14:29:22;;;;;;;4.05;1.30;;;14.20;90.60;;;;;;4085234;29;20055;-77
2023/11/13 14:31:24;;;;;;;4.97;1.40;;;14.20;90.50;;;;;;4085435;29;20486;-82
2023/11/13 14:33:26;;;;;;;4.72;1.35;;;14.20;90.40;;;;;;4085177;29;20070;-79
2023/11/13 14:35:28;;;;;;;3.28;1.13;;;14.20;90.50;;;;;;4085997;29;20055;-81
2023/11/13 14:37:30;;;;;;;4.30;1.48;;;14.20;90.50;;;;;;4086667;29;20051;-80
2023/11/13 14:39:33;;;;;;;3.60;1.27;;;14.20;90.20;;;;;;4084863;29;20055;-76
2023/11/13 14:41:35;;;;;;;4.72;1.40;;;14.20;90.30;;;;;;4084797;29;20101;-78
2023/11/13 14:43:39;;;;;;;3.88;1.38;;;14.30;90.00;;;;;;4084364;29;20063;-80
2023/11/13 14:45:43;;;;;;;5.15;1.65;;;14.20;89.70;;;;;;4082348;29;20390;-78
2023/11/13 14:47:48;;;;;;;4.45;1.48;;;14.30;89.80;;;;;;4083688;29;20458;-78
2023/11/13 14:49:50;;;;;;;3.40;1.40;;;14.30;89.80;;;;;;4084204;29;20091;-78
2023/11/13 14:51:52;;;;;;;3.45;1.20;;;14.20;90.00;;;;;;4084046;29;20059;-78
2023/11/13 14:53:53;;;;;;;4.55;1.52;;;14.30;89.10;;;;;;4084594;29;20054;-78
2023/11/13 14:55:55;;;;;;;3.33;1.20;;;14.30;89.30;;;;;;4083491;29;20079;-78
2023/11/13 14:57:57;;;;;;;3.13;1.23;;;14.30;89.30;;;;;;4113736;28;20046;-79
2023/11/13 14:59:59;;;;;;;3.72;1.20;;;14.30;89.00;;;;;;4100645;28;20055;-78
2023/11/13 15:02:03;;;;;;;4.82;1.20;;;14.30;89.40;;;;;;4099583;29;20065;-79
2023/11/13 15:04:06;;;;;;;6.15;1.23;;;14.30;89.30;;;;;;4100246;29;20055;-78
2023/11/13 15:06:08;;;;;;;3.80;1.10;;;14.30;89.00;;;;;;4100141;28;20051;-78
2023/11/13 15:08:10;;;;;;;4.32;1.20;;;14.30;89.20;;;;;;4098677;29;20047;-79
2023/11/13 15:10:15;;;;;;;4.15;1.25;;;14.30;88.90;;;;;;4098652;29;20487;-80
2023/11/13 15:12:17;;;;;;;3.72;1.40;;;14.30;88.70;;;;;;4099666;29;20150;-72
2023/11/13 15:15:08;;;;;;;3.33;1.33;;;14.40;88.40;;;;;;4243706;27;20343;-78
2023/11/13 15:17:12;;;;;;;6.43;2.08;;;14.50;88.40;;;;;;4227610;28;20051;-78
2023/11/13 15:19:14;;;;;;;4.40;1.55;;;14.50;88.50;;;;;;4226855;28;20059;-78
2023/11/13 15:21:16;;;;;;;3.20;1.27;;;14.50;88.30;;;;;;4227694;28;20108;-79
2023/11/13 15:23:17;;;;;;;3.45;1.40;;;14.40;88.10;;;;;;4243011;28;20059;-79
2023/11/13 15:25:20;;;;;;;5.05;1.42;;;14.40;88.20;;;;;;4244251;28;20096;-78
2023/11/13 15:27:23;;;;;;;3.90;1.40;;;14.40;88.20;;;;;;4239826;28;20100;-78
2023/11/13 15:29:25;;;;;;;3.03;1.20;;;14.40;88.30;;;;;;4227257;28;20094;-78
2023/11/13 15:31:28;;;;;;;2.65;1.17;;;14.40;88.20;;;;;;4227690;28;20048;-79
2023/11/13 15:33:30;;;;;;;3.53;1.42;;;14.40;88.40;;;;;;4226513;28;20089;-78
2023/11/13 15:35:32;;;;;;;5.05;1.20;;;14.40;88.20;;;;;;4227266;28;20476;-78
2023/11/13 15:37:36;;;;;;;2.58;1.10;;;14.40;88.10;;;;;;4226949;28;20074;-78
2023/11/13 15:39:39;;;;;;;4.35;1.30;;;14.40;88.20;;;;;;4227491;28;20058;-78
2023/11/13 15:41:41;;;;;;;3.70;1.30;;;14.40;87.80;;;;;;4236679;28;20164;-78
2023/11/13 15:43:43;;;;;;;4.32;1.20;;;14.40;88.00;;;;;;4244267;28;20097;-79
2023/11/13 15:45:45;;;;;;;2.75;1.20;;;14.40;88.10;;;;;;4241901;27;20055;-78
2023/11/13 15:47:48;;;;;;;3.97;1.20;;;14.40;87.80;;;;;;4237340;27;20043;-79
2023/11/13 15:49:50;;;;;;;2.67;0.98;;;14.50;87.60;;;;;;4227055;28;20423;-78
2023/11/13 15:51:51;;;;;;;2.60;1.05;;;14.50;87.60;;;;;;4226091;28;20104;-79
2023/11/13 15:53:53;;;;;;;3.40;1.10;;;14.50;87.40;;;;;;4226750;28;20044;-80
2023/11/13 15:55:56;;;;;;;3.30;1.20;;;14.50;87.10;;;;;;4226745;28;20477;-79
2023/11/13 15:58:00;;;;;;;3.50;1.23;;;14.50;86.90;;;;;;4233620;28;20101;-79
2023/11/13 16:00:03;;;;;;;3.15;1.02;;;14.50;87.20;;;;;;4243998;27;20044;-79
2023/11/13 16:02:05;;;;;;;3.70;1.10;;;14.50;87.00;;;;;;4242658;27;20051;-79
2023/11/13 16:04:08;;;;;;;3.10;1.10;;;14.50;86.80;;;;;;4226421;28;20147;-79
2023/11/13 16:06:09;;;;;;;3.90;1.00;;;14.60;86.70;;;;;;4226569;28;20100;-79
2023/11/13 16:08:17;;;;;;;2.38;1.00;;;14.60;86.60;;;;;;4226305;28;20560;-79
2023/11/13 16:10:18;;;;;;;3.20;1.10;;;14.60;86.70;;;;;;4226906;28;20047;-77
2023/11/13 16:12:21;;;;;;;2.90;1.00;;;14.60;86.80;;;;;;4224679;28;20128;-78
2023/11/13 16:14:23;;;;;;;4.53;1.08;;;14.60;86.70;;;;;;4226188;28;20060;-79
2023/11/13 16:16:25;;;;;;;3.03;1.10;;;14.60;86.80;;;;;;4182505;28;20136;-76
2023/11/13 16:18:28;;;;;;;7.97;2.80;;;14.60;86.70;;;;;;4181425;28;20111;-76
2023/11/13 16:20:31;;;;;;;8.95;3.42;;;14.60;87.10;;;;;;4176685;28;20390;-78
2023/11/13 16:22:33;;;;;;;7.35;2.00;;;14.50;86.90;;;;;;4176236;28;20083;-78
2023/11/13 16:24:35;;;;;;;3.55;1.20;;;14.50;87.10;;;;;;4175971;28;20103;-77
2023/11/13 16:26:37;;;;;;;4.43;1.10;;;14.50;87.10;;;;;;4164430;28;20766;-77
2023/11/13 16:28:39;;;;;;;3.00;1.20;;;14.50;87.20;;;;;;4167139;28;20050;-79
2023/11/13 16:30:41;;;;;;;4.43;1.10;;;14.50;87.10;;;;;;4160025;28;20184;-77
2023/11/13 16:32:43;;;;;;;3.30;1.25;;;14.50;87.50;;;;;;4165429;28;20053;-78
2023/11/13 16:34:45;;;;;;;2.60;1.10;;;14.50;87.40;;;;;;4165124;28;20063;-78
2023/11/13 16:36:48;;;;;;;2.90;1.15;;;14.50;87.60;;;;;;4165912;28;20045;-78
2023/11/13 16:38:51;;;;;;;3.63;1.23;;;14.50;87.60;;;;;;4167906;28;20148;-78
2023/11/13 16:40:53;;;;;;;3.92;1.38;;;14.50;87.90;;;;;;4167990;28;20057;-79
2023/11/13 16:42:54;;;;;;;2.83;1.15;;;14.50;88.10;;;;;;4166564;28;20041;-77